TAP478 EGJJ-EGKK
Flight info
| Callsign | TAP478 |
|---|---|
| Flight time | 0h 20m |
| Altitude | 23000 |
| Route | ORIST L982 VASUX |
| Aircraft | A319/M-SDE3FGHIRWY/LB1 |
Departure
| Time | 2026-05-06 10:34 |
|---|---|
| Airport | Jersey Airport (EGJJ) |
Arrival
| Time | 2026-05-06 10:55 |
|---|---|
| Airport | London Gatwick Airport (EGKK) |
| Time | Latitude | Longitude | Altitude | Speed | Heading |
|---|---|---|---|---|---|
| 2026-05-06 10:22 | 49.20551 | -2.19806 | 280 ft | 0 kts | 174° |
| 2026-05-06 10:27 | 49.20566 | -2.19808 | 283 ft | 2 kts | 175° |
| 2026-05-06 10:27 | 49.20583 | -2.19810 | 284 ft | 2 kts | 177° |
| 2026-05-06 10:27 | 49.20600 | -2.19810 | 287 ft | 2 kts | 197° |
| 2026-05-06 10:28 | 49.20610 | -2.19796 | 284 ft | 1 kts | 264° |
| 2026-05-06 10:28 | 49.20611 | -2.19791 | 283 ft | 0 kts | 264° |
| 2026-05-06 10:31 | 49.20608 | -2.19825 | 283 ft | 7 kts | 262° |
| 2026-05-06 10:31 | 49.20584 | -2.19924 | 283 ft | 10 kts | 223° |
| 2026-05-06 10:31 | 49.20517 | -2.19960 | 280 ft | 11 kts | 237° |
| 2026-05-06 10:31 | 49.20528 | -2.20035 | 280 ft | 10 kts | 284° |
| 2026-05-06 10:32 | 49.20562 | -2.20218 | 283 ft | 23 kts | 288° |
| 2026-05-06 10:32 | 49.20613 | -2.20471 | 280 ft | 24 kts | 285° |
| 2026-05-06 10:32 | 49.20627 | -2.20604 | 280 ft | 0 kts | 274° |
| 2026-05-06 10:32 | 49.20627 | -2.20605 | 280 ft | 1 kts | 274° |
| 2026-05-06 10:33 | 49.20635 | -2.20676 | 284 ft | 10 kts | 291° |
| 2026-05-06 10:33 | 49.20696 | -2.20702 | 280 ft | 8 kts | 24° |
| 2026-05-06 10:33 | 49.20706 | -2.20668 | 279 ft | 0 kts | 83° |
| 2026-05-06 10:33 | 49.20722 | -2.20464 | 280 ft | 52 kts | 83° |
| 2026-05-06 10:34 | 49.20798 | -2.19562 | 284 ft | 118 kts | 83° |
| 2026-05-06 10:34 | 49.20906 | -2.18177 | 681 ft | 135 kts | 83° |
| 2026-05-06 10:34 | 49.21021 | -2.16752 | 1445 ft | 135 kts | 79° |
| 2026-05-06 10:34 | 49.21105 | -2.15784 | 1950 ft | 137 kts | 77° |
| 2026-05-06 10:35 | 49.21242 | -2.14318 | 2552 ft | 147 kts | 78° |
| 2026-05-06 10:35 | 49.21386 | -2.12668 | 3041 ft | 165 kts | 78° |
| 2026-05-06 10:35 | 49.21532 | -2.10852 | 3633 ft | 181 kts | 79° |
| 2026-05-06 10:35 | 49.21702 | -2.08845 | 4161 ft | 202 kts | 80° |
| 2026-05-06 10:36 | 49.21957 | -2.06688 | 4932 ft | 213 kts | 67° |
| 2026-05-06 10:36 | 49.22896 | -2.04970 | 5940 ft | 216 kts | 30° |
| 2026-05-06 10:36 | 49.24361 | -2.04434 | 7043 ft | 221 kts | 3° |
| 2026-05-06 10:36 | 49.25904 | -2.04352 | 8134 ft | 223 kts | 2° |
| 2026-05-06 10:37 | 49.27503 | -2.04285 | 8960 ft | 241 kts | 2° |
| 2026-05-06 10:37 | 49.31884 | -2.04096 | 10746 ft | 280 kts | 2° |
| 2026-05-06 10:37 | 49.39956 | -2.03691 | 14502 ft | 300 kts | 2° |
| 2026-05-06 10:37 | 49.48583 | -2.03220 | 17833 ft | 320 kts | 2° |
| 2026-05-06 10:38 | 49.57759 | -2.02494 | 20533 ft | 349 kts | 15° |
| 2026-05-06 10:38 | 49.67060 | -1.94850 | 22235 ft | 396 kts | 28° |
| 2026-05-06 10:38 | 49.77035 | -1.86818 | 22694 ft | 394 kts | 28° |
| 2026-05-06 10:38 | 49.86629 | -1.78885 | 22877 ft | 390 kts | 28° |
| 2026-05-06 10:39 | 49.96210 | -1.70929 | 23020 ft | 385 kts | 28° |
| 2026-05-06 10:39 | 50.05798 | -1.62956 | 23108 ft | 390 kts | 28° |
| 2026-05-06 10:39 | 50.15371 | -1.54963 | 23116 ft | 393 kts | 28° |
| 2026-05-06 10:39 | 50.24979 | -1.46891 | 23063 ft | 397 kts | 28° |
| 2026-05-06 10:40 | 50.34587 | -1.38787 | 22951 ft | 398 kts | 28° |
| 2026-05-06 10:40 | 50.38795 | -1.35227 | 22932 ft | 391 kts | 28° |
| 2026-05-06 10:40 | 50.41196 | -1.33188 | 23005 ft | 393 kts | 28° |
| 2026-05-06 10:40 | 50.43615 | -1.31131 | 23003 ft | 398 kts | 28° |
| 2026-05-06 10:41 | 50.46058 | -1.29048 | 22996 ft | 400 kts | 28° |
| 2026-05-06 10:41 | 50.48470 | -1.26987 | 22751 ft | 391 kts | 28° |
| 2026-05-06 10:41 | 50.50767 | -1.24765 | 22276 ft | 386 kts | 37° |
| 2026-05-06 10:41 | 50.52837 | -1.22110 | 21763 ft | 382 kts | 40° |
| 2026-05-06 10:42 | 50.54866 | -1.19446 | 21235 ft | 378 kts | 40° |
| 2026-05-06 10:42 | 50.56874 | -1.16804 | 20710 ft | 375 kts | 40° |
| 2026-05-06 10:42 | 50.58863 | -1.14180 | 20184 ft | 371 kts | 40° |
| 2026-05-06 10:42 | 50.60830 | -1.11577 | 19657 ft | 367 kts | 40° |
| 2026-05-06 10:43 | 50.62779 | -1.09004 | 19139 ft | 364 kts | 40° |
| 2026-05-06 10:43 | 50.64707 | -1.06460 | 18635 ft | 360 kts | 39° |
| 2026-05-06 10:43 | 50.66498 | -1.03730 | 18109 ft | 357 kts | 49° |
| 2026-05-06 10:44 | 50.69613 | -0.97731 | 16962 ft | 350 kts | 50° |
| 2026-05-06 10:44 | 50.71145 | -0.94771 | 16421 ft | 346 kts | 50° |
| 2026-05-06 10:44 | 50.72663 | -0.91846 | 15860 ft | 343 kts | 50° |
| 2026-05-06 10:44 | 50.74170 | -0.88952 | 15334 ft | 340 kts | 50° |
| 2026-05-06 10:45 | 50.75660 | -0.86082 | 14812 ft | 336 kts | 50° |
| 2026-05-06 10:45 | 50.77136 | -0.83232 | 14312 ft | 333 kts | 50° |
| 2026-05-06 10:45 | 50.78594 | -0.80410 | 13822 ft | 330 kts | 50° |
| 2026-05-06 10:45 | 50.80013 | -0.77653 | 13279 ft | 327 kts | 50° |
| 2026-05-06 10:46 | 50.81521 | -0.74979 | 12723 ft | 323 kts | 39° |
| 2026-05-06 10:46 | 50.83453 | -0.73238 | 12200 ft | 320 kts | 22° |
| 2026-05-06 10:46 | 50.85513 | -0.71927 | 11661 ft | 318 kts | 21° |
| 2026-05-06 10:46 | 50.87564 | -0.70649 | 11153 ft | 316 kts | 21° |
| 2026-05-06 10:47 | 50.89606 | -0.69383 | 10642 ft | 314 kts | 21° |
| 2026-05-06 10:47 | 50.91628 | -0.68130 | 10293 ft | 305 kts | 21° |
| 2026-05-06 10:47 | 50.93541 | -0.66941 | 10103 ft | 287 kts | 21° |
| 2026-05-06 10:47 | 50.95378 | -0.65798 | 9658 ft | 281 kts | 21° |
| 2026-05-06 10:48 | 50.97188 | -0.64671 | 9110 ft | 278 kts | 21° |
| 2026-05-06 10:48 | 50.98700 | -0.63724 | 8658 ft | 275 kts | 21° |
| 2026-05-06 10:48 | 51.00405 | -0.62648 | 8151 ft | 273 kts | 21° |
| 2026-05-06 10:48 | 51.02162 | -0.61535 | 7626 ft | 270 kts | 21° |
| 2026-05-06 10:49 | 51.03877 | -0.60446 | 7132 ft | 268 kts | 21° |
| 2026-05-06 10:49 | 51.05601 | -0.59350 | 6617 ft | 266 kts | 21° |
| 2026-05-06 10:49 | 51.07283 | -0.58176 | 6117 ft | 263 kts | 29° |
| 2026-05-06 10:49 | 51.08698 | -0.56384 | 5763 ft | 255 kts | 46° |
| 2026-05-06 10:50 | 51.09678 | -0.54155 | 5632 ft | 238 kts | 61° |
| 2026-05-06 10:50 | 51.10238 | -0.51764 | 5426 ft | 226 kts | 75° |
| 2026-05-06 10:50 | 51.10573 | -0.49375 | 5077 ft | 217 kts | 75° |
| 2026-05-06 10:50 | 51.10904 | -0.47038 | 4484 ft | 219 kts | 75° |
| 2026-05-06 10:51 | 51.11243 | -0.44645 | 3806 ft | 223 kts | 75° |
| 2026-05-06 10:51 | 51.11584 | -0.42214 | 3085 ft | 228 kts | 75° |
| 2026-05-06 10:51 | 51.11928 | -0.39756 | 2672 ft | 220 kts | 75° |
| 2026-05-06 10:51 | 51.12249 | -0.37454 | 2397 ft | 207 kts | 75° |
| 2026-05-06 10:52 | 51.12555 | -0.35267 | 2135 ft | 197 kts | 75° |
| 2026-05-06 10:52 | 51.12836 | -0.33252 | 1874 ft | 183 kts | 73° |
| 2026-05-06 10:52 | 51.13110 | -0.31292 | 1636 ft | 180 kts | 74° |
| 2026-05-06 10:52 | 51.13376 | -0.29382 | 1420 ft | 172 kts | 74° |
| 2026-05-06 10:53 | 51.13618 | -0.27634 | 1154 ft | 149 kts | 73° |
| 2026-05-06 10:53 | 51.13824 | -0.26149 | 950 ft | 129 kts | 71° |
| 2026-05-06 10:53 | 51.14010 | -0.24812 | 785 ft | 119 kts | 72° |
| 2026-05-06 10:53 | 51.14126 | -0.23980 | 666 ft | 116 kts | 72° |
| 2026-05-06 10:54 | 51.14302 | -0.22715 | 510 ft | 117 kts | 70° |
| 2026-05-06 10:54 | 51.14477 | -0.21453 | 351 ft | 117 kts | 72° |
| 2026-05-06 10:54 | 51.14649 | -0.20192 | 223 ft | 112 kts | 58° |
| 2026-05-06 10:54 | 51.14796 | -0.19210 | 208 ft | 68 kts | 78° |
| 2026-05-06 10:55 | 51.14883 | -0.18580 | 206 ft | 50 kts | 78° |
| 2026-05-06 10:55 | 51.14948 | -0.18091 | 210 ft | 36 kts | 78° |
| 2026-05-06 10:55 | 51.15003 | -0.17687 | 215 ft | 30 kts | 78° |
| 2026-05-06 10:55 | 51.15061 | -0.17368 | 212 ft | 32 kts | 64° |
| 2026-05-06 10:56 | 51.15167 | -0.17235 | 206 ft | 19 kts | 333° |
| 2026-05-06 10:56 | 51.15284 | -0.17227 | 205 ft | 16 kts | 359° |
| 2026-05-06 10:56 | 51.15380 | -0.17244 | 205 ft | 12 kts | 23° |
| 2026-05-06 10:56 | 51.15405 | -0.17141 | 211 ft | 12 kts | 67° |
| 2026-05-06 10:57 | 51.15426 | -0.16999 | 205 ft | 12 kts | 77° |
| 2026-05-06 10:57 | 51.15455 | -0.16958 | 205 ft | 4 kts | 343° |
| 2026-05-06 10:57 | 51.15480 | -0.16966 | 205 ft | 0 kts | 348° |
| 2026-05-06 10:57 | 51.15487 | -0.16968 | 205 ft | 2 kts | 349° |
| 2026-05-06 10:58 | 51.15488 | -0.16968 | 205 ft | 0 kts | 349° |